createdAt,value
2023-01-17T00:01:07.778Z,74.03
2023-01-17T00:06:48.418Z,74.12
2023-01-17T00:12:10.406Z,74.03
2023-01-17T00:17:32.717Z,74.43
2023-01-17T00:23:13.402Z,74.13
2023-01-17T00:28:38.326Z,74.17
2023-01-17T00:34:00.117Z,74.31
2023-01-17T00:39:22.107Z,73.68
2023-01-17T00:45:02.940Z,73.95
2023-01-17T00:50:43.622Z,73.65
2023-01-17T00:56:25.080Z,73.44
2023-01-17T01:02:06.097Z,73.48
2023-01-17T01:07:47.059Z,74.12
2023-01-17T01:13:27.794Z,73.61
2023-01-17T01:19:08.693Z,74.22
2023-01-17T01:24:49.578Z,74.12
2023-01-17T01:30:30.410Z,74.35
2023-01-17T01:35:54.350Z,74.25
2023-01-17T01:41:16.451Z,74.34
2023-01-17T01:46:40.245Z,74.46
2023-01-17T01:52:03.728Z,74.07
2023-01-17T01:57:30.328Z,74.14
2023-01-17T02:02:53.821Z,74.11
2023-01-17T02:08:19.245Z,73.85
2023-01-17T02:13:41.183Z,73.49
2023-01-17T02:19:41.021Z,73.42
2023-01-17T02:25:37.875Z,72.97
2023-01-17T02:31:16.037Z,72.68
2023-01-17T02:36:48.753Z,72.47
2023-01-17T02:42:16.128Z,72.25
2023-01-17T02:47:38.628Z,71.67
2023-01-17T02:53:21.566Z,71.09
2023-01-17T02:58:55.193Z,71.07
2023-01-17T03:04:44.931Z,71.22
2023-01-17T03:10:06.725Z,71.39
2023-01-17T03:15:30.021Z,71.36
2023-01-17T03:20:51.742Z,71.59
2023-01-17T03:26:13.537Z,71.70
2023-01-17T03:31:35.657Z,71.76
2023-01-17T03:36:57.525Z,71.81
2023-01-17T03:42:19.826Z,72.30
2023-01-17T03:47:41.945Z,72.55
2023-01-17T03:53:03.872Z,72.78
2023-01-17T03:58:25.859Z,72.71
2023-01-17T04:03:47.799Z,72.43
2023-01-17T04:09:10.069Z,72.62
2023-01-17T04:14:32.267Z,72.44
2023-01-17T04:19:57.047Z,72.52
2023-01-17T04:25:18.720Z,72.29
2023-01-17T04:30:43.874Z,72.26
2023-01-17T04:36:06.761Z,72.14
2023-01-17T04:41:28.597Z,72.51
2023-01-17T04:46:50.644Z,72.57
2023-01-17T04:52:12.697Z,72.78
2023-01-17T04:57:35.156Z,72.70
2023-01-17T05:02:56.994Z,72.70
2023-01-17T05:08:19.316Z,73.32
2023-01-17T05:13:41.450Z,73.18
2023-01-17T05:19:03.502Z,73.38
2023-01-17T05:24:25.080Z,73.40
2023-01-17T05:29:47.042Z,73.17
2023-01-17T05:35:09.763Z,73.33
2023-01-17T05:40:32.993Z,73.25
2023-01-17T05:45:55.555Z,73.17
2023-01-17T05:51:17.153Z,72.98
2023-01-17T05:56:39.286Z,72.99
2023-01-17T06:02:00.961Z,73.02
2023-01-17T06:07:23.242Z,73.12
2023-01-17T06:12:45.936Z,72.91
2023-01-17T06:18:12.624Z,72.89
2023-01-17T06:23:34.487Z,72.76
2023-01-17T06:28:56.584Z,72.39
2023-01-17T06:34:18.810Z,72.41
2023-01-17T06:39:40.438Z,73.03
2023-01-17T06:45:02.405Z,72.94
2023-01-17T06:50:25.802Z,72.41
2023-01-17T06:55:47.639Z,72.57
2023-01-17T07:01:11.155Z,72.60
2023-01-17T07:06:36.076Z,72.41
2023-01-17T07:12:02.155Z,72.48
2023-01-17T07:17:24.667Z,72.51
2023-01-17T07:22:46.712Z,72.30
2023-01-17T07:28:09.143Z,72.27
2023-01-17T07:33:30.988Z,72.37
2023-01-17T07:38:52.702Z,72.04
2023-01-17T07:44:14.709Z,71.97
2023-01-17T07:49:36.457Z,71.80
2023-01-17T07:54:58.587Z,71.69
2023-01-17T08:00:23.184Z,71.72
2023-01-17T08:05:55.747Z,71.88
2023-01-17T08:11:17.732Z,71.95
2023-01-17T08:16:40.325Z,71.85
2023-01-17T08:22:02.488Z,71.86
2023-01-17T08:27:25.218Z,71.93
2023-01-17T08:32:47.347Z,71.83
2023-01-17T08:38:08.981Z,71.99
2023-01-17T08:43:30.851Z,71.88
2023-01-17T08:48:56.762Z,71.77
2023-01-17T08:54:19.246Z,71.73
2023-01-17T08:59:44.278Z,71.71
2023-01-17T09:05:06.923Z,71.72
2023-01-17T09:10:29.207Z,71.74
2023-01-17T09:15:50.972Z,71.51
2023-01-17T09:21:18.400Z,71.25
2023-01-17T09:26:40.808Z,71.11
2023-01-17T09:32:02.665Z,70.88
2023-01-17T09:37:24.491Z,70.60
2023-01-17T09:42:50.891Z,70.27
2023-01-17T09:48:21.459Z,69.79
2023-01-17T09:53:44.097Z,69.60
2023-01-17T09:59:35.423Z,69.16
2023-01-17T10:05:30.011Z,68.70
2023-01-17T10:11:13.949Z,68.69
2023-01-17T10:16:52.664Z,68.22
2023-01-17T10:22:33.051Z,67.75
2023-01-17T10:28:00.317Z,67.37
2023-01-17T10:33:25.568Z,66.79
2023-01-17T10:38:53.309Z,65.97
2023-01-17T10:44:39.302Z,65.26
2023-01-17T10:50:05.464Z,64.87
2023-01-17T10:55:44.265Z,64.58
2023-01-17T11:01:15.133Z,64.19
2023-01-17T11:06:53.189Z,63.63
2023-01-17T11:12:43.911Z,62.49
2023-01-17T11:18:07.244Z,62.75
2023-01-17T11:23:33.399Z,61.67
2023-01-17T11:29:16.006Z,61.05
2023-01-17T11:34:38.823Z,61.09
2023-01-17T11:40:08.186Z,59.73
2023-01-17T11:45:32.515Z,59.62
2023-01-17T11:50:57.960Z,59.20
2023-01-17T11:56:33.940Z,58.86
2023-01-17T12:02:04.701Z,58.17
2023-01-17T12:07:52.065Z,57.07
2023-01-17T12:13:41.806Z,56.89
2023-01-17T12:19:07.139Z,56.80
2023-01-17T12:24:48.183Z,56.15
2023-01-17T12:30:17.736Z,56.96
2023-01-17T12:35:51.050Z,57.34
2023-01-17T12:41:26.759Z,56.22
2023-01-17T12:47:00.562Z,56.03
2023-01-17T12:52:54.814Z,55.63
2023-01-17T12:58:21.878Z,55.48
2023-01-17T13:04:03.542Z,55.39
2023-01-17T13:09:28.295Z,54.64
2023-01-17T13:14:50.209Z,55.31
2023-01-17T13:20:43.225Z,55.18
2023-01-17T13:26:14.336Z,54.91
2023-01-17T13:31:48.353Z,54.82
2023-01-17T13:37:25.965Z,55.13
2023-01-17T13:43:01.176Z,55.62
2023-01-17T13:48:23.376Z,55.31
2023-01-17T13:53:46.221Z,55.02
2023-01-17T13:59:27.703Z,54.73
2023-01-17T14:05:30.782Z,55.14
2023-01-17T14:10:54.311Z,55.52
2023-01-17T14:16:21.818Z,55.56
2023-01-17T14:21:43.917Z,56.22
2023-01-17T14:27:16.256Z,56.59
2023-01-17T14:32:39.091Z,57.01
2023-01-17T14:38:03.168Z,57.35
2023-01-17T14:43:28.226Z,58.06
2023-01-17T14:48:51.705Z,58.40
2023-01-17T14:54:19.358Z,58.89
2023-01-17T14:59:41.179Z,59.22
2023-01-17T15:05:02.916Z,59.57
2023-01-17T15:10:30.404Z,59.69
2023-01-17T15:16:06.650Z,59.91
2023-01-17T15:21:33.501Z,60.41
2023-01-17T15:26:55.315Z,60.47
2023-01-17T15:32:24.134Z,60.68
2023-01-17T15:37:45.502Z,60.76
2023-01-17T15:43:18.895Z,61.23
2023-01-17T15:48:45.072Z,60.90
2023-01-17T15:54:26.304Z,60.99
2023-01-17T15:59:53.852Z,61.35
2023-01-17T16:05:25.120Z,61.42
2023-01-17T16:10:47.145Z,61.88
2023-01-17T16:16:21.250Z,62.14
2023-01-17T16:21:45.255Z,62.39
2023-01-17T16:27:09.291Z,63.12
2023-01-17T16:32:32.333Z,63.71
2023-01-17T16:37:54.354Z,63.99
2023-01-17T16:43:18.391Z,64.46
2023-01-17T16:48:40.125Z,64.88
2023-01-17T16:54:02.315Z,65.28
2023-01-17T16:59:25.110Z,65.43
2023-01-17T17:04:46.805Z,65.75
2023-01-17T17:10:10.755Z,65.84
2023-01-17T17:15:32.782Z,65.82
2023-01-17T17:20:55.013Z,65.85
2023-01-17T17:26:16.744Z,65.95
2023-01-17T17:31:42.516Z,65.86
2023-01-17T17:37:04.933Z,65.52
2023-01-17T17:42:26.832Z,65.16
2023-01-17T17:47:48.828Z,65.26
2023-01-17T17:53:10.750Z,65.30
2023-01-17T17:58:34.614Z,65.41
2023-01-17T18:04:00.976Z,64.74
2023-01-17T18:09:22.859Z,64.38
2023-01-17T18:14:44.852Z,64.28
2023-01-17T18:20:07.863Z,64.31
2023-01-17T18:25:29.737Z,64.35
2023-01-17T18:30:51.630Z,64.07
2023-01-17T18:36:14.103Z,63.53
2023-01-17T18:41:35.942Z,63.68
2023-01-17T18:47:02.040Z,64.30
2023-01-17T18:52:24.665Z,65.47
2023-01-17T18:57:46.455Z,66.80
2023-01-17T19:03:08.416Z,66.85
2023-01-17T19:08:32.762Z,66.98
2023-01-17T19:13:55.492Z,66.82
2023-01-17T19:19:17.617Z,67.54
2023-01-17T19:24:40.665Z,67.40
2023-01-17T19:30:02.686Z,67.72
2023-01-17T19:35:24.428Z,67.21
2023-01-17T19:40:46.526Z,67.42
2023-01-17T19:46:09.008Z,67.70
2023-01-17T19:51:31.613Z,67.92
2023-01-17T19:56:53.534Z,68.03
2023-01-17T20:02:15.658Z,68.56
2023-01-17T20:07:37.898Z,68.45
2023-01-17T20:12:59.623Z,68.55
2023-01-17T20:18:22.618Z,68.59
2023-01-17T20:23:47.295Z,68.73
2023-01-17T20:29:12.877Z,68.70
2023-01-17T20:34:36.774Z,68.66
2023-01-17T20:39:58.707Z,68.67
2023-01-17T20:45:20.434Z,68.46
2023-01-17T20:50:42.259Z,68.42
2023-01-17T20:56:05.193Z,67.82
2023-01-17T21:01:27.302Z,67.48
2023-01-17T21:06:51.962Z,67.27
2023-01-17T21:12:14.796Z,67.16
2023-01-17T21:17:40.849Z,66.64
2023-01-17T21:23:03.742Z,67.48
2023-01-17T21:28:28.014Z,67.16
2023-01-17T21:34:10.869Z,67.30
2023-01-17T21:39:33.040Z,67.77
2023-01-17T21:44:55.985Z,67.97
2023-01-17T21:50:32.438Z,68.02
2023-01-17T21:56:19.577Z,67.77
2023-01-17T22:01:41.560Z,68.20
2023-01-17T22:07:03.531Z,68.08
2023-01-17T22:12:25.437Z,68.10
2023-01-17T22:17:47.691Z,68.13
2023-01-17T22:23:10.224Z,68.03
2023-01-17T22:28:33.358Z,68.17
2023-01-17T22:34:03.423Z,68.22
2023-01-17T22:39:25.457Z,67.99
2023-01-17T22:44:47.991Z,68.00
2023-01-17T22:50:10.670Z,67.91
2023-01-17T22:55:32.535Z,67.48
2023-01-17T23:01:02.847Z,67.70
2023-01-17T23:06:28.913Z,67.78
2023-01-17T23:11:53.076Z,67.65
2023-01-17T23:17:33.271Z,67.81
2023-01-17T23:22:55.518Z,67.97
2023-01-17T23:28:20.992Z,68.09
2023-01-17T23:33:42.779Z,68.38
2023-01-17T23:39:04.705Z,68.62
2023-01-17T23:44:31.780Z,68.87
2023-01-17T23:49:53.377Z,69.00
2023-01-17T23:55:15.508Z,69.21
